Time;durP1;ratioP1;P1;durP2;ratioP2;P2;SDS_P1;SDS_P2;PMS_P1;PMS_P2;Temp;Humidity;BMP_temperature;BMP_pressure;BME280_temperature;BME280_humidity;BME280_pressure;Samples;Min_cycle;Max_cycle;Signal;HPM_P1;HPM_P2
2021/11/12 00:02:36;475540.00;1.59;819.72;0.00;0.00;0.62;;;;;10.70;1.00;;;;;;2242968;62;1455;-86
2021/11/12 00:13:21;439865.00;1.47;758.35;0.00;0.00;0.62;;;;;10.20;1.20;;;;;;2238417;62;1320;-87
2021/11/12 00:15:52;666531.00;2.22;1149.25;35573.00;0.12;62.23;;;;;10.80;1.00;;;;;;2231887;62;1139;-87
2021/11/12 00:18:21;470472.00;1.57;811.00;0.00;0.00;0.62;;;;;10.90;1.00;;;;;;2235270;62;1138;-86
2021/11/12 00:20:50;503006.00;1.68;867.00;0.00;0.00;0.62;;;;;10.10;1.00;;;;;;2232394;62;1182;-86
2021/11/12 00:23:17;645666.00;2.15;1113.14;0.00;0.00;0.62;;;;;9.40;1.00;;;;;;2237024;62;1336;-87
2021/11/12 00:25:47;542555.00;1.81;935.13;0.00;0.00;0.62;;;;;9.70;1.00;;;;;;2240417;62;1070;-86
2021/11/12 00:28:16;538583.00;1.80;928.28;0.00;0.00;0.62;;;;;10.00;1.00;;;;;;2247060;62;1113;-87
2021/11/12 00:30:53;488593.00;1.63;842.19;0.00;0.00;0.62;;;;;9.70;1.00;;;;;;2252241;61;1158;-87
2021/11/12 00:33:35;451091.00;1.50;777.66;0.00;0.00;0.62;;;;;9.70;1.00;;;;;;2262862;61;1302;-86
2021/11/12 00:36:14;600500.00;2.00;1035.08;0.00;0.00;0.62;;;;;10.20;1.00;;;;;;2256172;61;1164;-86
2021/11/12 00:38:45;869185.00;2.90;1502.06;147524.00;0.49;255.54;;;;;10.60;1.00;;;;;;2263412;61;1160;-86
2021/11/12 00:41:18;499862.00;1.67;861.59;0.00;0.00;0.62;;;;;11.00;1.00;;;;;;2256317;61;999;-87
2021/11/12 00:43:46;519768.00;1.73;895.87;0.00;0.00;0.62;;;;;10.60;1.00;;;;;;2263873;61;1481;-86
2021/11/12 00:46:17;556966.00;1.86;959.97;0.00;0.00;0.62;;;;;10.00;1.00;;;;;;2264661;61;1070;-87
2021/11/12 00:48:48;602881.00;2.01;1039.19;0.00;0.00;0.62;;;;;9.80;1.00;;;;;;2265187;61;1140;-87
2021/11/12 00:51:24;581737.00;1.94;1002.70;0.00;0.00;0.62;;;;;9.70;1.00;;;;;;2267937;61;1935;-87
2021/11/12 00:53:55;126316648.00;421.06;81658024.00;0.00;0.00;0.62;;;;;10.00;1.00;;;;;;2266682;61;1370;-86
2021/11/12 00:56:24;502461.00;1.67;866.06;0.00;0.00;0.62;;;;;10.20;1.00;;;;;;2266682;61;1145;-87
2021/11/12 00:58:52;578216.00;1.93;996.62;0.00;0.00;0.62;;;;;10.50;1.00;;;;;;2259683;61;1065;-87
2021/11/12 01:01:19;612237.00;2.04;1055.35;0.00;0.00;0.62;;;;;10.80;1.00;;;;;;2256421;61;1260;-87
2021/11/12 01:03:47;584670.00;1.95;1007.76;0.00;0.00;0.62;;;;;11.10;1.00;;;;;;2266289;61;1556;-87
2021/11/12 01:06:15;635071.00;2.12;1094.82;0.00;0.00;0.62;;;;;11.00;1.00;;;;;;2266187;61;1103;-87
2021/11/12 01:08:42;511188.00;1.70;881.09;0.00;0.00;0.62;;;;;11.30;1.00;;;;;;2256603;61;1232;-87
2021/11/12 01:11:11;472466.00;1.57;814.43;0.00;0.00;0.62;;;;;10.60;1.00;;;;;;2260996;61;2017;-87
2021/11/12 01:13:39;576159.00;1.92;993.07;0.00;0.00;0.62;;;;;10.50;1.00;;;;;;2267749;61;1382;-87
2021/11/12 01:16:07;508955.00;1.70;877.24;0.00;0.00;0.62;;;;;9.80;1.00;;;;;;2271060;61;1198;-86
2021/11/12 01:18:36;503818.00;1.68;868.40;0.00;0.00;0.62;;;;;10.00;1.00;;;;;;2271444;61;1112;-87
2021/11/12 01:21:05;445675.00;1.49;768.34;0.00;0.00;0.62;;;;;9.60;1.00;;;;;;2268159;61;1070;-88
2021/11/12 01:23:34;457817.00;1.53;789.23;0.00;0.00;0.62;;;;;9.60;1.00;;;;;;2271809;61;1386;-87
2021/11/12 01:26:01;467436.00;1.56;805.78;0.00;0.00;0.62;;;;;10.10;1.00;;;;;;2275997;61;1109;-87
2021/11/12 01:28:28;513094.00;1.71;884.37;0.00;0.00;0.62;;;;;10.50;1.00;;;;;;2271935;61;1128;-87
2021/11/12 01:30:57;324661.00;1.08;560.31;0.00;0.00;0.62;;;;;10.80;1.00;;;;;;2268565;61;1042;-87
2021/11/12 01:33:25;412337.00;1.37;711.01;0.00;0.00;0.62;;;;;11.00;1.00;;;;;;2275233;61;1999;-88
2021/11/12 01:35:54;427881.00;1.43;737.74;0.00;0.00;0.62;;;;;11.00;1.00;;;;;;2275624;61;1141;-88
2021/11/12 01:38:22;491797.00;1.64;847.70;0.00;0.00;0.62;;;;;10.80;1.00;;;;;;2275549;61;1114;-89
2021/11/12 01:40:51;537722.00;1.79;926.80;0.00;0.00;0.62;;;;;11.00;1.00;;;;;;2275365;61;1055;-87
2021/11/12 01:43:20;337486.00;1.12;582.35;0.00;0.00;0.62;;;;;11.40;1.00;;;;;;2267981;61;1439;-89
2021/11/12 01:48:57;339868.00;1.13;586.45;0.00;0.00;0.62;;;;;11.50;1.00;;;;;;2258680;61;963;-89
2021/11/12 01:51:30;464090.00;1.55;800.02;0.00;0.00;0.62;;;;;11.20;1.00;;;;;;2258286;61;2007;-87
2021/11/12 01:54:19;496398.00;1.65;855.62;0.00;0.00;0.62;;;;;11.10;1.00;;;;;;2258790;61;1362;-87
2021/11/12 01:56:58;482274.00;1.61;831.31;0.00;0.00;0.62;;;;;11.20;1.00;;;;;;2246554;62;960;-88
2021/11/12 01:59:25;650312.00;2.17;1121.18;0.00;0.00;0.62;;;;;11.20;1.00;;;;;;2236768;62;1241;-87
2021/11/12 02:01:56;334515.00;1.12;577.25;0.00;0.00;0.62;;;;;11.30;1.00;;;;;;2236475;62;1302;-88
2021/11/12 02:04:26;662776.00;2.21;1142.75;0.00;0.00;0.62;;;;;11.30;1.00;;;;;;2247602;61;1102;-88
2021/11/12 02:06:55;624254.00;2.08;1076.12;0.00;0.00;0.62;;;;;10.40;1.00;;;;;;2247352;61;1090;-87
2021/11/12 02:09:23;663968.00;2.21;1144.81;0.00;0.00;0.62;;;;;9.70;1.00;;;;;;2235285;62;967;-88
2021/11/12 02:11:55;636376.00;2.12;1097.07;0.00;0.00;0.62;;;;;9.70;1.00;;;;;;2234707;62;2007;-87
2021/11/12 02:14:25;611288.00;2.04;1053.71;0.00;0.00;0.62;;;;;9.80;1.00;;;;;;2232467;61;1134;-88
2021/11/12 02:16:58;549579.00;1.83;947.23;0.00;0.00;0.62;;;;;10.00;1.00;;;;;;2247343;62;1021;-89
2021/11/12 02:19:26;468557.00;1.56;807.71;0.00;0.00;0.62;;;;;9.90;1.00;;;;;;2247543;62;1156;-87
2021/11/12 02:22:07;498591.00;1.66;859.40;0.00;0.00;0.62;;;;;9.70;1.00;;;;;;2247079;62;1324;-87
2021/11/12 02:24:37;578262.00;1.93;996.70;0.00;0.00;0.62;;;;;9.30;1.00;;;;;;2249798;61;1053;-87
2021/11/12 02:27:06;650316.00;2.17;1121.18;0.00;0.00;0.62;;;;;9.40;1.00;;;;;;2260173;61;1156;-87
2021/11/12 02:29:34;577885.00;1.93;996.05;0.00;0.00;0.62;;;;;8.80;1.00;;;;;;2268034;61;1236;-88
2021/11/12 02:32:01;598983.00;2.00;1032.46;0.00;0.00;0.62;;;;;8.50;1.00;;;;;;2275618;61;1988;-87
2021/11/12 02:34:28;567555.00;1.89;978.23;0.00;0.00;0.62;;;;;8.60;1.00;;;;;;2271927;61;965;-88
2021/11/12 02:36:55;596056.00;1.99;1027.41;0.00;0.00;0.62;;;;;7.90;1.00;;;;;;2271511;61;1002;-88
2021/11/12 02:39:24;588527.00;1.96;1014.41;0.00;0.00;0.62;;;;;8.50;1.00;;;;;;2264642;61;1017;-88
2021/11/12 02:41:52;531998.00;1.77;916.93;0.00;0.00;0.62;;;;;8.90;2.30;;;;;;2271800;61;1294;-87
2021/11/12 02:44:20;504644.00;1.68;869.82;0.00;0.00;0.62;;;;;9.50;1.00;;;;;;2265462;61;1217;-87
2021/11/12 02:46:47;553133.00;1.84;953.36;0.00;0.00;0.62;;;;;9.70;1.00;;;;;;2264936;61;1018;-86
2021/11/12 02:49:14;619918.00;2.07;1068.62;0.00;0.00;0.62;;;;;9.80;1.00;;;;;;2272149;61;1085;-89
2021/11/12 02:51:41;525640.00;1.75;905.98;0.00;0.00;0.62;;;;;9.80;1.00;;;;;;2264914;61;2004;-87
2021/11/12 02:54:10;568836.00;1.90;980.44;0.00;0.00;0.62;;;;;9.60;1.00;;;;;;2272649;61;1472;-88
2021/11/12 02:56:39;582691.00;1.94;1004.34;0.00;0.00;0.62;;;;;9.10;1.00;;;;;;2269587;61;1052;-89
2021/11/12 02:59:09;564144.00;1.88;972.35;0.00;0.00;0.62;;;;;9.30;1.00;;;;;;2269718;61;972;-89
2021/11/12 03:01:40;541574.00;1.81;933.44;0.00;0.00;0.62;;;;;9.20;1.00;;;;;;2269011;61;939;-88
2021/11/12 03:04:07;610258.00;2.03;1051.94;0.00;0.00;0.62;;;;;8.30;1.00;;;;;;2268984;61;1485;-86
2021/11/12 03:06:35;478444.00;1.59;824.72;0.00;0.00;0.62;;;;;7.90;1.00;;;;;;2269027;61;1164;-86
2021/11/12 03:09:07;523922.00;1.75;903.02;0.00;0.00;0.62;;;;;7.90;1.00;;;;;;2268679;61;1071;-86
2021/11/12 03:11:35;521455.00;1.74;898.77;0.00;0.00;0.62;;;;;7.60;1.00;;;;;;2268857;61;979;-87
2021/11/12 03:14:03;509166.00;1.70;877.61;0.00;0.00;0.62;;;;;7.80;1.00;;;;;;2268578;61;1939;-87
2021/11/12 03:16:31;544205.00;1.81;937.97;0.00;0.00;0.62;;;;;7.40;1.00;;;;;;2275760;61;1163;-86
2021/11/12 03:19:00;506188.00;1.69;872.48;0.00;0.00;0.62;;;;;7.50;1.00;;;;;;2275042;61;1131;-87
2021/11/12 03:21:28;641313.00;2.14;1105.61;0.00;0.00;0.62;;;;;7.60;1.00;;;;;;2275770;61;1116;-86
2021/11/12 03:23:58;798395.00;2.66;1378.32;0.00;0.00;0.62;;;;;7.70;1.00;;;;;;2275229;61;1415;-87
2021/11/12 03:26:33;566822.00;1.89;976.97;0.00;0.00;0.62;;;;;7.40;1.00;;;;;;2271616;61;1084;-87
2021/11/12 04:02:09;560315.00;1.87;965.74;0.00;0.00;0.62;;;;;8.40;1.00;;;;;;2250863;61;1365;-87
2021/11/12 04:05:08;590627.00;1.97;1018.04;0.00;0.00;0.62;;;;;8.50;1.00;;;;;;2244005;61;1158;-87
2021/11/12 04:17:04;460260.00;1.53;793.43;0.00;0.00;0.62;;;;;8.70;1.00;;;;;;2248560;61;1216;-90
2021/11/12 04:18:30;580452.00;1.93;1000.48;0.00;0.00;0.62;;;;;7.40;1.00;;;;;;2274236;61;1408;-86
2021/11/12 05:10:49;522119.00;1.74;899.91;0.00;0.00;0.62;;;;;8.40;3.40;;;;;;2262694;61;1085;-86
2021/11/12 05:13:30;494559.00;1.65;852.46;0.00;0.00;0.62;;;;;8.90;1.00;;;;;;2255933;61;2023;-86
2021/11/12 05:43:52;598134.00;1.99;1031.00;0.00;0.00;0.62;;;;;8.70;1.60;;;;;;2235049;62;1463;-86
2021/11/12 05:46:37;481401.00;1.60;829.81;0.00;0.00;0.62;;;;;8.80;1.00;;;;;;2247841;61;1050;-87
2021/11/12 05:52:00;583262.00;1.94;1005.33;0.00;0.00;0.62;;;;;7.50;1.40;;;;;;2250724;61;1439;-87
2021/11/12 05:57:13;511784.00;1.71;882.11;0.00;0.00;0.62;;;;;8.60;1.00;;;;;;2259118;61;707;-87
2021/11/12 05:59:43;786658.00;2.62;1357.86;0.00;0.00;0.62;;;;;8.60;1.00;;;;;;2258136;61;1050;-87
2021/11/12 06:02:10;989546.00;3.30;1713.97;0.00;0.00;0.62;;;;;8.30;1.00;;;;;;2267214;61;1387;-87
2021/11/12 06:04:37;867758.00;2.89;1499.56;0.00;0.00;0.62;;;;;7.90;1.00;;;;;;2275183;61;1118;-87
2021/11/12 06:07:05;824644.00;2.75;1424.14;0.00;0.00;0.62;;;;;8.10;1.00;;;;;;2264562;61;1100;-87
2021/11/12 06:09:32;807088.00;2.69;1393.49;0.00;0.00;0.62;;;;;8.20;1.00;;;;;;2264647;61;1183;-87
2021/11/12 06:12:01;767680.00;2.56;1324.81;0.00;0.00;0.62;;;;;8.20;1.00;;;;;;2268290;61;1394;-87
2021/11/12 06:14:28;746780.00;2.49;1288.46;0.00;0.00;0.62;;;;;7.90;1.00;;;;;;2268709;61;1939;-87
2021/11/12 06:16:57;700908.00;2.34;1208.81;0.00;0.00;0.62;;;;;8.00;1.00;;;;;;2276048;61;1143;-88
2021/11/12 06:19:24;634502.00;2.12;1093.83;0.00;0.00;0.62;;;;;7.90;1.20;;;;;;2271569;61;1260;-87
2021/11/12 06:21:52;811952.00;2.71;1401.98;16916.00;0.06;29.93;;;;;8.90;2.60;;;;;;2271774;61;1278;-86
2021/11/12 06:24:19;683630.00;2.28;1178.86;3260.00;0.01;6.27;;;;;9.00;1.00;;;;;;2264238;61;1173;-87
2021/11/12 06:26:57;721006.00;2.40;1243.68;0.00;0.00;0.62;;;;;9.00;1.00;;;;;;2265128;61;1114;-87
2021/11/12 06:29:24;380280.00;1.27;655.91;0.00;0.00;0.62;;;;;9.20;1.40;;;;;;2270831;61;1144;-86
2021/11/12 06:31:51;429563.00;1.43;740.63;0.00;0.00;0.62;;;;;9.60;1.00;;;;;;2266753;61;1294;-87
2021/11/12 06:34:19;632612.00;2.11;1090.56;0.00;0.00;0.62;;;;;9.80;1.00;;;;;;2267007;61;2074;-85
2021/11/12 06:36:46;526080.00;1.75;906.74;0.00;0.00;0.62;;;;;8.70;1.00;;;;;;2259637;61;1109;-86
2021/11/12 06:39:14;635804.00;2.12;1096.08;0.00;0.00;0.62;;;;;8.40;1.00;;;;;;2256047;61;1066;-85
2021/11/12 06:44:54;434059.00;1.45;748.37;0.00;0.00;0.62;;;;;8.40;1.00;;;;;;2251545;61;973;-87
2021/11/12 06:50:13;454541.00;1.52;783.59;0.00;0.00;0.62;;;;;8.70;1.00;;;;;;2253068;61;1045;-85
2021/11/12 06:52:43;536316.00;1.79;924.37;0.00;0.00;0.62;;;;;8.40;1.00;;;;;;2245197;61;2032;-85
2021/11/12 06:55:11;522036.00;1.74;899.77;0.00;0.00;0.62;;;;;8.50;1.00;;;;;;2252486;61;1649;-85
2021/11/12 06:57:39;468478.00;1.56;807.57;0.00;0.00;0.62;;;;;8.50;1.00;;;;;;2258893;61;1195;-85
2021/11/12 07:00:08;517176.00;1.72;891.40;0.00;0.00;0.62;;;;;8.90;1.00;;;;;;2262042;61;1206;-85
2021/11/12 07:02:35;185498.00;0.62;320.96;0.00;0.00;0.62;;;;;8.20;1.00;;;;;;2260950;61;1360;-86
2021/11/12 07:05:02;426799.00;1.42;735.88;0.00;0.00;0.62;;;;;8.10;1.00;;;;;;2258521;61;1784;-85
2021/11/12 07:07:31;511783.00;1.71;882.11;0.00;0.00;0.62;;;;;7.50;1.00;;;;;;2258377;61;1136;-85
2021/11/12 07:09:58;585442.00;1.95;1009.09;0.00;0.00;0.62;;;;;7.50;1.00;;;;;;2257950;61;1251;-86
2021/11/12 07:12:51;477196.00;1.59;822.57;0.00;0.00;0.62;;;;;7.60;1.00;;;;;;2258446;61;1397;-86
2021/11/12 07:15:19;513420.00;1.71;884.93;0.00;0.00;0.62;;;;;7.50;1.00;;;;;;2258384;61;1267;-86
2021/11/12 07:17:47;419380.00;1.40;723.12;0.00;0.00;0.62;;;;;7.30;1.00;;;;;;2260493;61;1612;-86
2021/11/12 07:20:14;597337.00;1.99;1029.62;0.00;0.00;0.62;;;;;7.60;1.20;;;;;;2258817;61;1142;-84
2021/11/12 07:22:44;418658.00;1.40;721.88;0.00;0.00;0.62;;;;;8.30;1.20;;;;;;2270205;61;1336;-83
2021/11/12 07:25:11;670630.00;2.24;1156.34;0.00;0.00;0.62;;;;;9.00;2.50;;;;;;2266143;61;1128;-84
2021/11/12 07:27:38;491794.00;1.64;847.70;0.00;0.00;0.62;;;;;9.20;1.00;;;;;;2266349;61;1521;-84
2021/11/12 07:30:10;605865.00;2.02;1044.35;0.00;0.00;0.62;;;;;8.70;1.00;;;;;;2266497;61;1113;-86
2021/11/12 07:33:03;416494.00;1.39;718.16;0.00;0.00;0.62;;;;;8.20;1.00;;;;;;2267829;61;1930;-85
2021/11/12 07:35:34;534022.00;1.78;920.42;0.00;0.00;0.62;;;;;8.30;1.00;;;;;;2267470;61;1116;-85
2021/11/12 07:38:10;488171.00;1.63;841.46;0.00;0.00;0.62;;;;;8.20;1.00;;;;;;2268376;61;1164;-85
2021/11/12 07:40:49;406368.00;1.35;700.75;0.00;0.00;0.62;;;;;8.00;1.00;;;;;;2268445;61;1162;-85
2021/11/12 07:46:10;524081.00;1.75;903.29;0.00;0.00;0.62;;;;;8.20;1.00;;;;;;2258364;61;1443;-83
2021/11/12 07:48:37;530432.00;1.77;914.24;0.00;0.00;0.62;;;;;8.10;1.00;;;;;;2262751;61;1165;-84
2021/11/12 07:51:05;501230.00;1.67;863.94;0.00;0.00;0.62;;;;;8.20;1.00;;;;;;2264433;61;1094;-82
2021/11/12 07:53:34;466209.00;1.55;803.67;0.00;0.00;0.62;;;;;8.50;1.00;;;;;;2266835;61;2012;-81
2021/11/12 07:56:01;427847.00;1.43;737.68;0.00;0.00;0.62;;;;;8.40;1.00;;;;;;2266942;61;1026;-84
2021/11/12 07:58:28;439898.00;1.47;758.41;0.00;0.00;0.62;;;;;8.90;1.00;;;;;;2266870;61;1145;-84
2021/11/12 08:00:55;484121.00;1.61;834.49;0.00;0.00;0.62;;;;;8.70;1.00;;;;;;2267132;61;1202;-83
2021/11/12 08:03:22;447550.00;1.49;771.57;0.00;0.00;0.62;;;;;8.50;1.00;;;;;;2267071;61;1334;-84
2021/11/12 08:05:52;607910.00;2.03;1047.88;0.00;0.00;0.62;;;;;7.90;1.00;;;;;;2270102;61;1217;-85
2021/11/12 08:08:21;530650.00;1.77;914.61;0.00;0.00;0.62;;;;;8.00;1.30;;;;;;2270211;61;1155;-86
2021/11/12 08:10:53;374017.00;1.25;645.14;0.00;0.00;0.62;;;;;8.30;1.00;;;;;;2271452;61;1517;-85
2021/11/12 08:13:30;530989.00;1.77;915.20;0.00;0.00;0.62;;;;;8.50;1.00;;;;;;2270859;61;1945;-85
2021/11/12 08:16:06;541085.00;1.80;932.59;0.00;0.00;0.62;;;;;9.10;1.20;;;;;;2271362;61;1099;-86
2021/11/12 08:18:45;457995.00;1.53;789.54;0.00;0.00;0.62;;;;;9.40;1.00;;;;;;2271319;61;1215;-85
2021/11/12 08:21:15;544028.00;1.81;937.67;0.00;0.00;0.62;;;;;9.50;1.00;;;;;;2271606;61;1851;-85
2021/11/12 08:23:49;612685.00;2.04;1056.13;0.00;0.00;0.62;;;;;9.60;1.00;;;;;;2272057;61;1472;-85
2021/11/12 08:26:26;497022.00;1.66;856.70;0.00;0.00;0.62;;;;;8.90;1.00;;;;;;2270883;61;1119;-84
2021/11/12 08:29:11;739078.00;2.46;1275.07;0.00;0.00;0.62;;;;;8.60;1.00;;;;;;2273163;61;1074;-84
2021/11/12 08:31:45;476656.00;1.59;821.64;0.00;0.00;0.62;;;;;8.40;1.00;;;;;;2275603;61;1765;-85
2021/11/12 08:34:14;513490.00;1.71;885.05;0.00;0.00;0.62;;;;;8.40;1.00;;;;;;2276272;61;2021;-84
2021/11/12 08:36:57;820713.00;2.74;1417.27;0.00;0.00;0.62;;;;;8.10;1.00;;;;;;2276307;61;1066;-84
2021/11/12 08:39:41;476500.00;1.59;821.37;0.00;0.00;0.62;;;;;8.50;1.30;;;;;;2269801;61;1528;-84
2021/11/12 08:42:11;599422.00;2.00;1033.22;0.00;0.00;0.62;;;;;8.60;1.00;;;;;;2268216;61;1469;-84
2021/11/12 08:44:43;696810.00;2.32;1201.71;0.00;0.00;0.62;;;;;8.80;1.00;;;;;;2268192;61;1715;-84
2021/11/12 08:47:13;657795.00;2.19;1134.12;0.00;0.00;0.62;;;;;8.90;1.00;;;;;;2268015;61;1069;-84
2021/11/12 08:49:42;517906.00;1.73;892.66;0.00;0.00;0.62;;;;;9.10;1.00;;;;;;2268147;61;1086;-84
2021/11/12 08:52:11;564322.00;1.88;972.65;0.00;0.00;0.62;;;;;8.80;1.00;;;;;;2268172;61;1395;-84
2021/11/12 08:54:40;812514.00;2.71;1402.96;0.00;0.00;0.62;;;;;9.10;1.90;;;;;;2268720;61;1939;-86
2021/11/12 08:57:12;469455.00;1.56;809.25;0.00;0.00;0.62;;;;;9.80;2.70;;;;;;2275075;61;1239;-86
2021/11/12 08:59:40;691032.00;2.30;1191.69;0.00;0.00;0.62;;;;;10.50;1.00;;;;;;2266635;61;1161;-85
2021/11/12 09:02:08;563774.00;1.88;971.71;0.00;0.00;0.62;;;;;9.50;1.00;;;;;;2268087;61;1407;-86
2021/11/12 09:04:35;641249.00;2.14;1105.50;0.00;0.00;0.62;;;;;9.70;1.00;;;;;;2270165;61;1185;-85
2021/11/12 09:07:02;539623.00;1.80;930.07;0.00;0.00;0.62;;;;;10.20;1.00;;;;;;2268877;61;1133;-83
2021/11/12 09:09:29;455644.00;1.52;785.49;0.00;0.00;0.62;;;;;10.00;1.00;;;;;;2268975;61;1115;-84
2021/11/12 09:11:56;506634.00;1.69;873.25;0.00;0.00;0.62;;;;;10.50;1.00;;;;;;2268697;61;1380;-85
2021/11/12 09:14:26;478763.00;1.60;825.27;0.00;0.00;0.62;;;;;10.70;1.00;;;;;;2269129;61;2004;-85
2021/11/12 09:16:53;547612.00;1.83;943.84;0.00;0.00;0.62;;;;;10.80;1.00;;;;;;2268966;61;1132;-84
2021/11/12 09:19:20;479746.00;1.60;826.96;0.00;0.00;0.62;;;;;10.90;1.00;;;;;;2269349;61;1147;-85
2021/11/12 09:21:48;560171.00;1.87;965.50;0.00;0.00;0.62;;;;;11.00;1.00;;;;;;2268949;61;1353;-85
2021/11/12 09:24:15;462883.00;1.54;797.94;0.00;0.00;0.62;;;;;11.30;1.00;;;;;;2269329;61;1534;-84
2021/11/12 09:26:43;575393.00;1.92;991.75;0.00;0.00;0.62;;;;;11.30;1.00;;;;;;2269832;61;1675;-85
2021/11/12 09:29:12;388120.00;1.29;669.38;0.00;0.00;0.62;;;;;10.40;1.00;;;;;;2269413;61;1093;-85
2021/11/12 09:31:42;445350.00;1.48;767.78;0.00;0.00;0.62;;;;;11.00;1.00;;;;;;2268449;61;1144;-85
2021/11/12 09:34:11;617050.00;2.06;1063.67;0.00;0.00;0.62;;;;;10.90;1.00;;;;;;2268485;61;2030;-85
2021/11/12 09:36:39;504505.00;1.68;869.58;0.00;0.00;0.62;;;;;11.00;1.00;;;;;;2268036;61;1263;-85
2021/11/12 09:39:06;681226.00;2.27;1174.70;0.00;0.00;0.62;;;;;10.40;1.00;;;;;;2268131;61;1207;-84
2021/11/12 09:41:33;557310.00;1.86;960.56;0.00;0.00;0.62;;;;;11.00;1.00;;;;;;2268115;61;1218;-84
2021/11/12 09:44:03;643990.00;2.15;1110.24;0.00;0.00;0.62;;;;;11.40;1.00;;;;;;2271740;61;1321;-85
2021/11/12 09:46:31;617027.00;2.06;1063.63;0.00;0.00;0.62;;;;;10.70;1.00;;;;;;2275933;61;1113;-86
2021/11/12 09:49:03;793289.00;2.64;1369.42;0.00;0.00;0.62;;;;;10.10;1.00;;;;;;2275745;61;1145;-86
2021/11/12 09:51:31;637761.00;2.13;1099.47;0.00;0.00;0.62;;;;;9.90;1.00;;;;;;2276657;61;1264;-85
2021/11/12 09:53:58;823244.00;2.74;1421.69;0.00;0.00;0.62;;;;;10.00;1.00;;;;;;2271672;61;2039;-85
2021/11/12 09:56:26;632273.00;2.11;1089.98;0.00;0.00;0.62;;;;;9.80;1.00;;;;;;2270195;61;1264;-84
2021/11/12 09:58:53;677778.00;2.26;1168.72;0.00;0.00;0.62;;;;;10.00;1.00;;;;;;2275116;61;1163;-85
2021/11/12 10:01:26;584753.00;1.95;1007.90;14456.00;0.05;25.67;;;;;10.20;1.00;;;;;;2275333;61;1070;-84
2021/11/12 10:03:53;665069.00;2.22;1146.72;0.00;0.00;0.62;;;;;10.80;1.00;;;;;;2270907;61;1564;-84
2021/11/12 10:06:25;548507.00;1.83;945.39;0.00;0.00;0.62;;;;;10.90;1.00;;;;;;2268003;61;1163;-84
2021/11/12 10:08:54;531847.00;1.77;916.67;0.00;0.00;0.62;;;;;10.30;1.00;;;;;;2268121;61;1121;-84
2021/11/12 10:11:24;479446.00;1.60;826.44;0.00;0.00;0.62;;;;;10.70;1.00;;;;;;2268436;61;992;-84
2021/11/12 10:13:59;533872.00;1.78;920.16;0.00;0.00;0.62;;;;;10.90;1.00;;;;;;2268622;61;2020;-84
2021/11/12 10:16:35;539375.00;1.80;929.65;0.00;0.00;0.62;;;;;11.00;1.00;;;;;;2268651;61;1130;-85
2021/11/12 10:19:06;625111.00;2.08;1077.60;0.00;0.00;0.62;;;;;10.60;1.00;;;;;;2268634;61;1727;-85
2021/11/12 10:21:36;675323.00;2.25;1164.47;0.00;0.00;0.62;;;;;10.40;1.00;;;;;;2268495;61;1255;-85
2021/11/12 10:24:05;767029.00;2.56;1323.68;0.00;0.00;0.62;;;;;10.60;1.00;;;;;;2268527;61;1331;-85
2021/11/12 10:26:36;669559.00;2.23;1154.49;0.00;0.00;0.62;;;;;10.70;1.00;;;;;;2268738;61;1149;-84
2021/11/12 10:29:08;509098.00;1.70;877.49;0.00;0.00;0.62;;;;;10.90;1.00;;;;;;2268651;61;1131;-85
2021/11/12 10:31:43;628499.00;2.09;1083.45;0.00;0.00;0.62;;;;;10.90;1.00;;;;;;2268773;61;1100;-84
2021/11/12 10:34:18;1202649.00;4.01;2095.01;114855.00;0.38;199.21;;;;;11.10;1.00;;;;;;2268380;61;1935;-85
2021/11/12 10:36:56;530605.00;1.77;914.53;0.00;0.00;0.62;;;;;11.20;1.00;;;;;;2268045;61;1139;-84
2021/11/12 10:39:31;587283.00;1.96;1012.27;0.00;0.00;0.62;;;;;10.90;1.00;;;;;;2267719;61;1085;-84
2021/11/12 10:42:00;595685.00;1.99;1026.77;0.00;0.00;0.62;;;;;10.50;1.00;;;;;;2267957;61;1475;-84
2021/11/12 10:44:27;494651.00;1.65;852.61;0.00;0.00;0.62;;;;;10.20;1.00;;;;;;2267682;61;1152;-85
2021/11/12 10:46:54;636834.00;2.12;1097.86;0.00;0.00;0.62;;;;;10.20;1.00;;;;;;2267975;61;1121;-84
2021/11/12 10:49:40;660689.00;2.20;1139.13;24841.00;0.08;43.65;;;;;9.90;1.00;;;;;;2267677;61;1097;-85
2021/11/12 10:52:12;645520.00;2.15;1112.89;0.00;0.00;0.62;;;;;10.20;1.00;;;;;;2267360;61;1268;-84
2021/11/12 10:54:58;121725464.00;405.75;73066088.00;0.00;0.00;0.62;;;;;10.90;1.00;;;;;;2268751;61;1998;-85
2021/11/12 10:57:31;710678.00;2.37;1225.76;39043.00;0.13;68.23;;;;;11.00;1.00;;;;;;2269103;61;1129;-84
2021/11/12 11:00:09;478276.00;1.59;824.43;0.00;0.00;0.62;;;;;11.00;1.00;;;;;;2268251;61;1185;-84
2021/11/12 11:02:39;579969.00;1.93;999.65;0.00;0.00;0.62;;;;;10.70;1.00;;;;;;2267996;61;1362;-84
2021/11/12 11:05:09;641375.00;2.14;1105.72;0.00;0.00;0.62;;;;;10.50;1.00;;;;;;2268775;61;1228;-84
2021/11/12 11:07:39;506617.00;1.69;873.22;0.00;0.00;0.62;;;;;10.60;1.00;;;;;;2267858;61;1153;-84
2021/11/12 11:10:20;496758.00;1.66;856.24;0.00;0.00;0.62;;;;;10.00;1.00;;;;;;2268110;61;1896;-84
2021/11/12 11:12:47;629724.00;2.10;1085.57;0.00;0.00;0.62;;;;;9.90;1.00;;;;;;2268233;61;1387;-85
2021/11/12 11:15:30;751176.00;2.50;1296.10;0.00;0.00;0.62;;;;;9.70;1.00;;;;;;2269521;61;1919;-84
2021/11/12 11:18:19;567485.00;1.89;978.11;0.00;0.00;0.62;;;;;9.60;1.00;;;;;;2269877;61;1155;-84
2021/11/12 11:20:52;701691.00;2.34;1210.17;0.00;0.00;0.62;;;;;10.00;1.00;;;;;;2269545;61;1267;-85
2021/11/12 11:23:22;598662.00;2.00;1031.91;0.00;0.00;0.62;;;;;10.20;1.00;;;;;;2269013;61;1486;-85
2021/11/12 11:26:02;812668.00;2.71;1403.23;43581.00;0.15;76.08;;;;;10.40;1.00;;;;;;2268377;61;1248;-84
2021/11/12 11:28:30;664987.00;2.22;1146.57;0.00;0.00;0.62;;;;;10.30;1.00;;;;;;2268367;61;1144;-85
2021/11/12 11:30:57;577367.00;1.92;995.16;0.00;0.00;0.62;;;;;10.20;1.00;;;;;;2267854;61;1097;-84
2021/11/12 11:33:24;600229.00;2.00;1034.62;0.00;0.00;0.62;;;;;10.10;1.00;;;;;;2267955;61;1304;-84
2021/11/12 11:35:55;717479.00;2.39;1237.56;0.00;0.00;0.62;;;;;10.50;1.00;;;;;;2267743;61;1935;-84
2021/11/12 11:38:28;792942.00;2.64;1368.82;0.00;0.00;0.62;;;;;10.10;1.00;;;;;;2267846;61;1243;-84
2021/11/12 11:40:56;552785.00;1.84;952.76;0.00;0.00;0.62;;;;;10.00;1.00;;;;;;2267966;61;1148;-84
2021/11/12 11:43:24;524819.00;1.75;904.57;0.00;0.00;0.62;;;;;10.40;1.00;;;;;;2267577;61;1428;-85
2021/11/12 11:45:53;523195.00;1.74;901.77;0.00;0.00;0.62;;;;;10.50;1.00;;;;;;2268106;61;1061;-85
2021/11/12 11:48:22;510946.00;1.70;880.67;41908.00;0.14;73.19;;;;;9.90;1.00;;;;;;2268577;61;1242;-85
2021/11/12 11:50:54;656376.00;2.19;1131.67;0.00;0.00;0.62;;;;;10.10;1.00;;;;;;2268568;61;1689;-85
2021/11/12 11:53:27;640477.00;2.13;1104.16;0.00;0.00;0.62;;;;;9.90;1.00;;;;;;2268239;61;1764;-85
2021/11/12 11:56:12;517319.00;1.72;891.65;0.00;0.00;0.62;;;;;10.00;1.00;;;;;;2268151;61;2032;-85
2021/11/12 11:58:42;427681.00;1.43;737.40;0.00;0.00;0.62;;;;;10.40;1.00;;;;;;2268493;61;1190;-84
2021/11/12 12:01:34;639890.00;2.13;1103.15;0.00;0.00;0.62;;;;;10.40;1.00;;;;;;2268285;61;1104;-85
2021/11/12 12:04:39;569860.00;1.90;982.21;0.00;0.00;0.62;;;;;10.50;1.00;;;;;;2269187;61;1302;-85
2021/11/12 12:07:38;636559.00;2.12;1097.39;96131.00;0.32;166.89;;;;;10.70;1.00;;;;;;2270198;61;1101;-84
2021/11/12 12:10:19;752960.00;2.51;1299.20;0.00;0.00;0.62;;;;;10.60;1.00;;;;;;2269218;61;1077;-85
2021/11/12 12:12:54;745211.00;2.48;1285.73;0.00;0.00;0.62;;;;;10.50;1.00;;;;;;2270764;61;1451;-85
2021/11/12 12:15:44;512276.00;1.71;882.96;17854.00;0.06;31.55;;;;;10.50;1.00;;;;;;2270368;61;2009;-85
2021/11/12 12:18:22;692705.00;2.31;1194.59;25542.00;0.09;44.87;;;;;10.70;1.00;;;;;;2267230;61;1230;-85
2021/11/12 12:21:38;852450.00;2.84;1472.76;7574.00;0.03;13.75;;;;;10.80;1.00;;;;;;2266888;61;1111;-85
2021/11/12 12:33:29;581781.00;1.94;1002.77;0.00;0.00;0.62;;;;;10.70;1.00;;;;;;2268298;61;1350;-84
2021/11/12 13:22:03;616113.00;2.05;1062.05;16749.00;0.06;29.64;;;;;11.10;1.00;;;;;;2270088;61;1377;-83
2021/11/12 13:24:36;614744.00;2.05;1059.68;0.00;0.00;0.62;;;;;10.50;1.00;;;;;;2271156;61;1180;-84
2021/11/12 13:27:05;634856.00;2.12;1094.44;0.00;0.00;0.62;;;;;10.10;2.20;;;;;;2271756;61;1065;-85
2021/11/12 13:29:33;734967.00;2.45;1267.93;0.00;0.00;0.62;;;;;10.40;2.20;;;;;;2268845;61;1113;-84
2021/11/12 13:32:07;590819.00;1.97;1018.37;0.00;0.00;0.62;;;;;10.90;1.00;;;;;;2270140;61;1518;-84
2021/11/12 13:34:42;585525.00;1.95;1009.23;0.00;0.00;0.62;;;;;11.10;1.00;;;;;;2271350;61;1981;-83
2021/11/12 13:37:17;620555.00;2.07;1069.73;0.00;0.00;0.62;;;;;10.80;1.00;;;;;;2271026;61;1161;-84